Time;durP1;ratioP1;P1;durP2;ratioP2;P2;SDS_P1;SDS_P2;PMS_P1;PMS_P2;Temp;Humidity;BMP_temperature;BMP_pressure;BME280_temperature;BME280_humidity;BME280_pressure;Samples;Min_cycle;Max_cycle;Signal;HPM_P1;HPM_P2
2021/09/09 00:01:40;;;;;;;22.00;16.60;;;;;;;13.94;81.32;100966.32;94651;1192;94289;-66
2021/09/09 00:03:48;;;;;;;22.80;18.00;;;;;;;13.89;81.32;100964.23;94646;1192;81382;-68
2021/09/09 00:05:59;;;;;;;20.10;16.60;;;;;;;13.89;81.33;100963.84;94655;1192;82042;-64
2021/09/09 00:08:07;;;;;;;20.60;16.30;;;;;;;13.88;81.28;100966.50;94636;1192;96942;-63
2021/09/09 00:10:15;;;;;;;20.70;16.90;;;;;;;13.90;81.40;100964.25;94642;1192;87050;-66
2021/09/09 00:12:23;;;;;;;21.80;17.40;;;;;;;13.88;81.41;100964.55;94645;1192;94480;-67
2021/09/09 00:14:30;;;;;;;22.00;17.30;;;;;;;13.87;81.39;100963.89;94615;1192;78963;-63
2021/09/09 00:16:38;;;;;;;22.40;17.30;;;;;;;13.80;81.47;100963.34;94662;1192;81842;-63
2021/09/09 00:18:50;;;;;;;19.70;17.00;;;;;;;13.77;81.37;100963.09;94665;1192;97720;-63
2021/09/09 00:20:58;;;;;;;19.40;16.60;;;;;;;13.71;81.43;100965.13;94656;1192;87087;-63
2021/09/09 00:23:06;;;;;;;21.50;17.50;;;;;;;13.65;81.48;100963.91;94618;1192;94535;-63
2021/09/09 00:25:14;;;;;;;20.20;16.30;;;;;;;13.60;81.49;100969.14;94642;1193;78956;-66
2021/09/09 00:27:24;;;;;;;21.20;17.30;;;;;;;13.60;81.48;100963.24;94685;1192;82230;-66
2021/09/09 00:29:32;;;;;;;21.10;17.20;;;;;;;13.55;81.44;100964.55;94653;1192;96603;-67
2021/09/09 00:31:40;;;;;;;21.10;16.70;;;;;;;13.54;81.47;100965.65;94650;1193;88193;-67
2021/09/09 00:33:47;;;;;;;18.60;15.60;;;;;;;13.50;81.51;100962.30;94662;1192;94415;-67
2021/09/09 00:36:02;;;;;;;18.40;16.50;;;;;;;13.45;81.62;100961.67;94635;1192;79328;-67
2021/09/09 00:38:10;;;;;;;23.40;17.30;;;;;;;13.42;81.64;100964.04;94640;1192;82034;-67
2021/09/09 00:40:17;;;;;;;19.70;16.30;;;;;;;13.41;81.68;100961.90;94647;1192;97353;-64
2021/09/09 00:42:25;;;;;;;18.40;16.50;;;;;;;13.40;81.79;100962.72;94656;1192;86875;-62
2021/09/09 00:44:33;;;;;;;22.70;16.90;;;;;;;13.38;81.75;100966.67;94660;1192;91892;-68
2021/09/09 00:46:40;;;;;;;18.90;16.00;;;;;;;13.35;81.71;100964.51;94616;1193;79490;-68
2021/09/09 00:48:48;;;;;;;19.00;15.90;;;;;;;13.32;81.82;100965.23;94682;1192;81147;-66
2021/09/09 00:50:56;;;;;;;17.90;15.90;;;;;;;13.29;81.86;100965.82;94675;1192;97635;-62
2021/09/09 00:53:03;;;;;;;22.80;16.60;;;;;;;13.21;82.01;100964.40;94669;1193;86830;-63
2021/09/09 00:55:12;;;;;;;21.70;16.00;;;;;;;13.15;82.02;100962.63;94654;1192;93362;-67
2021/09/09 00:57:20;;;;;;;19.90;16.60;;;;;;;13.13;81.98;100963.44;94679;1192;79755;-66
2021/09/09 00:59:30;;;;;;;18.30;16.00;;;;;;;13.12;82.01;100965.63;94627;1192;82166;-66
2021/09/09 01:01:37;;;;;;;19.20;15.80;;;;;;;13.13;82.00;100964.02;94637;1192;98765;-66
2021/09/09 01:03:45;;;;;;;21.00;15.60;;;;;;;13.10;82.03;100968.08;94710;1190;86968;-68
2021/09/09 01:05:52;;;;;;;21.40;17.30;;;;;;;13.08;82.08;100965.45;94653;1190;94802;-66
2021/09/09 01:08:04;;;;;;;21.30;16.70;;;;;;;13.03;82.12;100964.84;94698;1190;79156;-67
2021/09/09 01:10:13;;;;;;;19.40;16.90;;;;;;;13.04;82.09;100969.31;94670;1190;80420;-67
2021/09/09 01:12:23;;;;;;;20.80;16.80;;;;;;;13.01;82.18;100969.65;94682;1190;96994;-67
2021/09/09 01:14:31;;;;;;;18.90;16.30;;;;;;;12.98;82.22;100967.20;94671;1190;87732;-66
2021/09/09 01:16:40;;;;;;;18.60;16.30;;;;;;;12.96;82.22;100963.75;94665;1190;94115;-67
2021/09/09 01:18:49;;;;;;;22.00;17.90;;;;;;;12.93;82.28;100964.69;94656;1190;78173;-66
2021/09/09 01:20:57;;;;;;;21.80;17.70;;;;;;;12.89;82.29;100960.46;94727;1190;81042;-63
2021/09/09 01:23:05;;;;;;;22.20;17.60;;;;;;;12.89;82.24;100960.26;94679;1190;98323;-62
2021/09/09 01:25:14;;;;;;;19.70;16.30;;;;;;;12.89;82.34;100959.04;94669;1190;87274;-64
2021/09/09 01:27:22;;;;;;;21.60;17.30;;;;;;;12.91;82.22;100958.10;94688;1190;93052;-62
2021/09/09 01:29:36;;;;;;;21.30;17.00;;;;;;;12.86;82.30;100959.84;94662;1190;79269;-67
2021/09/09 01:31:44;;;;;;;20.50;16.40;;;;;;;12.84;82.30;100959.27;94713;1190;81876;-66
2021/09/09 01:33:56;;;;;;;21.60;17.10;;;;;;;12.82;82.35;100960.33;94670;1190;96059;-67
2021/09/09 01:36:04;;;;;;;22.20;18.10;;;;;;;12.79;82.36;100957.59;94693;1190;87086;-62
2021/09/09 01:38:24;;;;;;;18.50;16.50;;;;;;;12.81;82.47;100958.65;94674;1190;93431;-62
2021/09/09 01:40:33;;;;;;;20.10;17.20;;;;;;;12.77;82.48;100959.85;94665;1190;79435;-63
2021/09/09 01:42:41;;;;;;;21.40;17.70;;;;;;;12.73;82.50;100957.66;94675;1190;80864;-64
2021/09/09 01:44:48;;;;;;;20.70;17.70;;;;;;;12.74;82.53;100957.35;94676;1190;97891;-64
2021/09/09 01:46:56;;;;;;;21.30;17.30;;;;;;;12.69;82.62;100960.38;94672;1190;87710;-62
2021/09/09 01:49:06;;;;;;;22.70;17.90;;;;;;;12.68;82.56;100956.62;94695;1190;94114;-63
2021/09/09 01:51:13;;;;;;;21.30;16.70;;;;;;;12.66;82.45;100962.17;94662;1190;80153;-62
2021/09/09 01:53:21;;;;;;;20.00;16.30;;;;;;;12.65;82.51;100960.83;94674;1190;81357;-64
2021/09/09 01:55:28;;;;;;;20.70;17.00;;;;;;;12.65;82.54;100960.80;94677;1190;98156;-63
2021/09/09 01:57:36;;;;;;;20.90;17.30;;;;;;;12.61;82.53;100956.94;94731;1190;87122;-63
2021/09/09 01:59:43;;;;;;;22.30;17.00;;;;;;;12.58;82.52;100959.11;94658;1190;93531;-66
2021/09/09 02:01:51;;;;;;;21.20;17.20;;;;;;;12.60;82.56;100960.55;94675;1190;80369;-67
2021/09/09 02:03:59;;;;;;;23.30;17.00;;;;;;;12.58;82.53;100957.86;94738;1190;80778;-64
2021/09/09 02:06:07;;;;;;;21.20;17.00;;;;;;;12.58;82.57;100957.54;94678;1190;98012;-63
2021/09/09 02:08:14;;;;;;;21.90;17.30;;;;;;;12.56;82.62;100958.38;94669;1190;87428;-63
2021/09/09 02:10:22;;;;;;;20.50;17.40;;;;;;;12.54;82.46;100959.89;94654;1190;93434;-67
2021/09/09 02:12:30;;;;;;;21.10;16.10;;;;;;;12.49;82.48;100957.41;94679;1190;81237;-67
2021/09/09 02:14:40;;;;;;;19.60;15.90;;;;;;;12.49;82.51;100958.52;94659;1192;79912;-63
2021/09/09 02:16:47;;;;;;;19.50;15.80;;;;;;;12.50;82.50;100954.77;94687;1190;98367;-63
2021/09/09 02:18:58;;;;;;;21.00;16.40;;;;;;;12.45;82.57;100956.10;94709;1190;87822;-66
2021/09/09 02:21:06;;;;;;;20.40;17.40;;;;;;;12.41;82.55;100952.55;94708;1190;93418;-68
2021/09/09 02:23:13;;;;;;;20.40;17.60;;;;;;;12.41;82.64;100951.67;94698;1190;79977;-67
2021/09/09 02:25:21;;;;;;;22.30;17.00;;;;;;;12.38;82.73;100950.43;94685;1190;81845;-67
2021/09/09 02:27:29;;;;;;;21.00;16.70;;;;;;;12.35;82.59;100947.52;94680;1190;97127;-67
2021/09/09 02:29:36;;;;;;;18.10;15.90;;;;;;;12.31;82.67;100949.45;94669;1190;88461;-68
2021/09/09 02:31:44;;;;;;;19.40;16.00;;;;;;;12.28;82.64;100948.36;94730;1190;94204;-67
2021/09/09 02:33:53;;;;;;;21.00;17.00;;;;;;;12.23;82.75;100948.66;94720;1190;79142;-66
2021/09/09 02:36:00;;;;;;;20.00;16.80;;;;;;;12.26;82.75;100943.01;94702;1190;80056;-67
2021/09/09 02:38:08;;;;;;;20.70;16.00;;;;;;;12.23;82.69;100943.75;94677;1190;97746;-67
2021/09/09 02:40:16;;;;;;;21.40;17.70;;;;;;;12.19;82.81;100936.98;94644;1190;87829;-65
2021/09/09 02:42:27;;;;;;;17.70;15.30;;;;;;;12.19;82.73;100941.73;94657;1190;94003;-65
2021/09/09 02:44:34;;;;;;;17.00;15.00;;;;;;;12.21;82.76;100937.14;94663;1190;80020;-63
2021/09/09 02:46:45;;;;;;;19.60;16.90;;;;;;;12.16;82.84;100936.83;94696;1190;81822;-64
2021/09/09 02:48:56;;;;;;;23.00;17.20;;;;;;;12.12;82.84;100935.73;94662;1190;98300;-64
2021/09/09 02:51:03;;;;;;;20.40;16.40;;;;;;;12.08;82.87;100930.81;94673;1190;89085;-63
2021/09/09 02:53:11;;;;;;;19.70;16.50;;;;;;;12.03;82.88;100933.41;94670;1190;93720;-63
2021/09/09 02:55:18;;;;;;;18.80;15.00;;;;;;;12.01;82.87;100930.87;94653;1190;80788;-67
2021/09/09 02:57:29;;;;;;;21.10;15.20;;;;;;;12.00;82.99;100928.55;94699;1190;81805;-67
2021/09/09 02:59:36;;;;;;;18.20;15.80;;;;;;;12.00;83.03;100930.58;94662;1190;98104;-63
2021/09/09 03:01:44;;;;;;;22.10;16.80;;;;;;;11.98;83.15;100930.33;94677;1190;87943;-63
2021/09/09 03:03:52;;;;;;;19.10;16.10;;;;;;;11.95;83.13;100927.55;94689;1190;94099;-64
2021/09/09 03:05:59;;;;;;;18.70;15.00;;;;;;;11.95;83.06;100930.25;94721;1190;80915;-66
2021/09/09 03:08:08;;;;;;;18.80;15.50;;;;;;;11.93;83.07;100930.17;94712;1190;81142;-66
2021/09/09 03:10:16;;;;;;;17.40;15.30;;;;;;;11.94;83.07;100930.95;94706;1190;98558;-65
2021/09/09 03:12:24;;;;;;;18.30;15.60;;;;;;;11.92;83.18;100931.23;94723;1190;86422;-64
2021/09/09 03:14:31;;;;;;;19.70;15.60;;;;;;;11.87;83.20;100932.00;94635;1192;93839;-63
2021/09/09 03:16:39;;;;;;;18.10;15.90;;;;;;;11.86;83.24;100928.36;94669;1190;81382;-67
2021/09/09 03:18:46;;;;;;;20.70;15.90;;;;;;;11.87;83.29;100930.91;94705;1190;81432;-68
2021/09/09 03:20:56;;;;;;;20.20;16.20;;;;;;;11.89;83.26;100932.86;94695;1190;96238;-63
2021/09/09 03:23:04;;;;;;;21.20;17.20;;;;;;;11.93;83.52;100935.21;94713;1190;88168;-63
2021/09/09 03:25:16;;;;;;;19.90;17.50;;;;;;;11.99;83.49;100936.27;94672;1190;92552;-64
2021/09/09 03:27:27;;;;;;;19.00;16.90;;;;;;;11.99;83.39;100933.69;94690;1190;79139;-64
2021/09/09 03:29:34;;;;;;;23.20;17.60;;;;;;;12.00;83.38;100932.03;94681;1190;81600;-64
2021/09/09 03:31:42;;;;;;;24.00;18.80;;;;;;;12.00;83.31;100934.75;94650;1190;98071;-64
2021/09/09 03:33:50;;;;;;;20.00;17.10;;;;;;;12.03;83.50;100934.02;94679;1190;88331;-63
2021/09/09 03:35:57;;;;;;;20.20;18.00;;;;;;;12.09;83.45;100934.67;94684;1190;94301;-66
2021/09/09 03:38:05;;;;;;;24.90;20.10;;;;;;;12.13;83.65;100937.73;94700;1190;79382;-65
2021/09/09 03:40:15;;;;;;;23.50;18.90;;;;;;;12.19;83.76;100935.48;94644;1190;80386;-67
2021/09/09 03:42:23;;;;;;;22.40;18.80;;;;;;;12.23;83.68;100936.20;94709;1190;98236;-67
2021/09/09 03:44:30;;;;;;;22.50;18.70;;;;;;;12.27;83.61;100933.85;94686;1190;88045;-66
2021/09/09 03:46:38;;;;;;;24.10;18.00;;;;;;;12.30;83.61;100936.23;94674;1190;93699;-66
2021/09/09 03:48:45;;;;;;;23.60;19.00;;;;;;;12.31;83.62;100934.13;94662;1190;79319;-67
2021/09/09 03:50:53;;;;;;;23.40;18.90;;;;;;;12.31;83.57;100932.98;94661;1190;81433;-63
2021/09/09 03:53:00;;;;;;;21.50;18.10;;;;;;;12.31;83.36;100935.06;94691;1190;96969;-63
2021/09/09 03:55:11;;;;;;;22.50;17.70;;;;;;;12.25;83.46;100933.40;94689;1190;87344;-63
2021/09/09 03:57:19;;;;;;;21.70;18.40;;;;;;;12.22;83.48;100930.30;94688;1190;94180;-63
2021/09/09 03:59:26;;;;;;;23.90;18.70;;;;;;;12.24;83.37;100927.19;94686;1190;80434;-63
2021/09/09 04:01:34;;;;;;;23.10;18.50;;;;;;;12.27;83.56;100925.35;94654;1190;81007;-63
2021/09/09 04:03:46;;;;;;;23.00;18.00;;;;;;;12.28;83.55;100927.47;94690;1190;99209;-63
2021/09/09 04:05:53;;;;;;;22.60;18.00;;;;;;;12.26;83.59;100926.04;94622;1190;87795;-63
2021/09/09 04:08:07;;;;;;;22.10;18.90;;;;;;;12.24;83.53;100929.52;94677;1190;92988;-64
2021/09/09 04:10:15;;;;;;;23.70;19.00;;;;;;;12.25;83.62;100927.56;94697;1190;79191;-63
2021/09/09 04:12:22;;;;;;;23.10;19.10;;;;;;;12.26;83.52;100928.95;94690;1190;81245;-64
2021/09/09 04:14:30;;;;;;;22.60;18.90;;;;;;;12.26;83.62;100928.00;94682;1190;97656;-63
2021/09/09 04:16:41;;;;;;;21.80;17.70;;;;;;;12.24;83.64;100927.76;94652;1190;87206;-63
2021/09/09 04:18:49;;;;;;;20.30;17.60;;;;;;;12.22;83.51;100929.56;94677;1190;94067;-63
2021/09/09 04:20:56;;;;;;;21.10;17.00;;;;;;;12.22;83.45;100929.28;94700;1190;78818;-67
2021/09/09 04:23:04;;;;;;;21.00;17.60;;;;;;;12.24;83.52;100924.84;94679;1190;80530;-67
2021/09/09 04:25:13;;;;;;;20.30;17.40;;;;;;;12.21;83.56;100925.66;94647;1190;98090;-67
2021/09/09 04:27:23;;;;;;;22.90;18.30;;;;;;;12.24;83.67;100927.77;94698;1190;88136;-65
2021/09/09 04:29:30;;;;;;;23.00;18.10;;;;;;;12.29;83.77;100923.67;94656;1190;93752;-65
2021/09/09 04:31:38;;;;;;;26.00;19.30;;;;;;;12.35;83.78;100927.96;94675;1183;80897;-66
2021/09/09 04:33:49;;;;;;;22.50;19.60;;;;;;;12.46;83.95;100930.17;94695;1190;80612;-65
2021/09/09 04:35:57;;;;;;;24.70;18.50;;;;;;;12.55;84.06;100925.45;94718;1190;97633;-62
2021/09/09 04:38:04;;;;;;;23.00;18.50;;;;;;;12.61;84.09;100925.13;94730;1190;88700;-63
2021/09/09 04:40:15;;;;;;;23.90;18.40;;;;;;;12.69;84.06;100922.48;94680;1190;94186;-62
2021/09/09 04:42:22;;;;;;;26.20;19.20;;;;;;;12.79;83.89;100927.02;94671;1190;80436;-64
2021/09/09 04:44:30;;;;;;;23.90;20.40;;;;;;;12.90;84.05;100926.31;94685;1190;80932;-64
2021/09/09 04:46:37;;;;;;;21.30;18.50;;;;;;;12.99;84.02;100925.20;94679;1190;96947;-64
2021/09/09 04:48:45;;;;;;;23.30;19.40;;;;;;;13.06;84.02;100924.70;94705;1190;88317;-64
2021/09/09 04:50:52;;;;;;;24.80;19.50;;;;;;;13.14;83.96;100928.56;94696;1190;93457;-66
2021/09/09 04:53:00;;;;;;;21.50;18.00;;;;;;;13.24;83.94;100926.06;94663;1190;80170;-66
2021/09/09 04:55:09;;;;;;;23.20;19.10;;;;;;;13.33;83.90;100925.58;94676;1190;80555;-67
2021/09/09 04:57:17;;;;;;;22.40;19.70;;;;;;;13.44;83.89;100923.46;94683;1190;97264;-66
2021/09/09 04:59:24;;;;;;;24.90;20.70;;;;;;;13.54;83.91;100926.14;94683;1190;87622;-63
2021/09/09 05:01:32;;;;;;;25.00;19.40;;;;;;;13.65;83.91;100925.73;94706;1190;94874;-64
2021/09/09 05:03:39;;;;;;;25.70;20.90;;;;;;;13.77;84.01;100921.61;94694;1190;81575;-68
2021/09/09 05:05:47;;;;;;;25.90;20.70;;;;;;;13.91;84.04;100918.25;94710;1190;81499;-67
2021/09/09 05:07:54;;;;;;;22.60;19.70;;;;;;;14.06;83.96;100918.30;94677;1190;97685;-67
2021/09/09 05:10:06;;;;;;;27.20;21.20;;;;;;;14.18;83.93;100916.88;94655;1190;87728;-64
2021/09/09 05:12:13;;;;;;;25.70;21.90;;;;;;;14.35;83.99;100914.73;94686;1190;94628;-64
2021/09/09 05:14:21;;;;;;;28.50;22.80;;;;;;;14.55;84.10;100914.60;94661;1190;81315;-64
2021/09/09 05:16:32;;;;;;;26.20;22.80;;;;;;;15.07;84.45;100907.05;94666;1190;82282;-64
2021/09/09 05:18:39;;;;;;;25.40;21.70;;;;;;;16.08;84.07;100911.04;94672;1190;98581;-64
2021/09/09 05:20:47;;;;;;;26.30;23.00;;;;;;;16.87;83.70;100902.52;94678;1190;86168;-66
2021/09/09 05:22:55;;;;;;;28.30;21.00;;;;;;;17.17;83.08;100898.57;94663;1192;93688;-66
2021/09/09 05:25:03;;;;;;;23.40;20.20;;;;;;;17.28;82.46;100896.27;94636;1190;78339;-67
2021/09/09 05:27:13;;;;;;;23.10;20.10;;;;;;;17.42;82.00;100896.96;94688;1190;82148;-65
2021/09/09 05:29:22;;;;;;;25.40;21.00;;;;;;;17.61;80.93;100894.20;94683;1190;97781;-67
2021/09/09 05:31:30;;;;;;;22.80;19.40;;;;;;;17.63;80.19;100898.17;94688;1190;89024;-68
2021/09/09 05:33:38;;;;;;;22.90;19.80;;;;;;;17.52;79.65;100899.25;94679;1190;92669;-67
2021/09/09 05:35:47;;;;;;;23.40;19.80;;;;;;;17.30;79.38;100894.73;94696;1190;80030;-67
2021/09/09 05:37:54;;;;;;;24.00;19.40;;;;;;;17.11;79.21;100895.42;94681;1193;82205;-66
2021/09/09 05:40:02;;;;;;;26.90;21.00;;;;;;;17.02;79.08;100893.12;94644;1190;96183;-68
2021/09/09 05:42:09;;;;;;;24.20;19.80;;;;;;;16.97;78.81;100891.27;94732;1190;86999;-66
2021/09/09 05:44:23;;;;;;;23.50;18.70;;;;;;;16.95;78.92;100893.33;94721;1190;94158;-67
2021/09/09 05:46:29;;;;;;;;;;;;;;;16.94;78.83;100891.50;94713;1190;79332;-66
2021/09/09 05:48:43;;;;;;;23.90;18.50;;;;;;;16.98;78.90;100892.05;94711;1191;80530;-66
2021/09/09 05:50:51;;;;;;;21.90;18.90;;;;;;;17.07;78.74;100892.96;94698;1190;98068;-62
2021/09/09 05:52:59;;;;;;;23.40;18.70;;;;;;;17.24;78.50;100887.89;94687;1190;89099;-62
2021/09/09 05:55:11;;;;;;;23.00;18.70;;;;;;;17.35;78.27;100887.89;95172;1170;92131;-62
2021/09/09 05:57:18;;;;;;;24.60;19.20;;;;;;;17.74;78.26;100889.16;94665;1192;79526;-63
2021/09/09 05:59:29;;;;;;;22.30;18.30;;;;;;;18.42;78.27;100887.70;94646;1192;80379;-64
2021/09/09 06:01:38;;;;;;;24.10;18.30;;;;;;;18.63;77.24;100884.64;94683;1192;97457;-67
2021/09/09 06:03:46;;;;;;;23.40;17.20;;;;;;;18.95;76.19;100886.55;94654;1192;87958;-66
2021/09/09 06:05:59;;;;;;;20.30;17.60;;;;;;;19.15;75.28;100883.91;94628;1192;94677;-67
2021/09/09 06:08:07;;;;;;;;;;;;;;;19.12;75.02;100881.27;94653;1192;78219;-66
2021/09/09 06:10:15;;;;;;;26.70;18.90;;;;;;;19.11;75.00;100885.28;94638;1192;81827;-63
2021/09/09 06:12:26;;;;;;;21.00;17.30;;;;;;;18.98;75.14;100881.48;94638;1192;97775;-64
2021/09/09 06:14:34;;;;;;;23.10;17.60;;;;;;;18.87;75.19;100878.97;94637;1191;88081;-65
2021/09/09 06:16:47;;;;;;;21.30;16.80;;;;;;;18.78;75.21;100880.48;94677;1192;92747;-66
2021/09/09 06:18:55;;;;;;;20.40;16.20;;;;;;;18.74;75.10;100883.27;94641;1191;80878;-67
2021/09/09 06:21:03;;;;;;;20.50;15.90;;;;;;;18.69;74.84;100882.59;94635;1193;80696;-68
2021/09/09 06:23:14;;;;;;;19.20;15.60;;;;;;;18.68;74.98;100879.65;94648;1192;97661;-68
2021/09/09 06:25:21;;;;;;;19.80;16.10;;;;;;;18.79;75.14;100882.74;94644;1192;88295;-68
2021/09/09 06:27:29;;;;;;;19.90;16.10;;;;;;;18.83;75.15;100882.59;94629;1192;94534;-67
2021/09/09 06:29:37;;;;;;;23.10;16.40;;;;;;;18.87;75.05;100885.34;94668;1192;77835;-66
2021/09/09 06:31:44;;;;;;;19.20;15.60;;;;;;;18.87;74.99;100883.30;94657;1192;82039;-67
2021/09/09 06:33:52;;;;;;;24.10;16.30;;;;;;;18.85;74.83;100884.63;94666;1191;96585;-66
2021/09/09 06:36:00;;;;;;;20.90;16.70;;;;;;;18.91;74.63;100884.23;94659;1192;88000;-69
2021/09/09 06:38:13;;;;;;;18.80;15.70;;;;;;;18.94;74.55;100885.40;94653;1192;94421;-70
2021/09/09 06:40:20;;;;;;;19.70;15.70;;;;;;;18.96;74.40;100884.22;94521;1193;79268;-69
2021/09/09 06:42:28;;;;;;;19.60;15.30;;;;;;;19.01;74.24;100881.89;94649;1191;82106;-69
2021/09/09 06:44:36;;;;;;;18.60;14.90;;;;;;;19.14;74.29;100882.57;94632;1192;97453;-71
2021/09/09 06:46:44;;;;;;;19.40;14.60;;;;;;;19.49;74.51;100881.23;94648;1193;88187;-71
2021/09/09 06:48:52;;;;;;;18.00;13.90;;;;;;;20.09;74.51;100880.66;94649;1192;94639;-70
2021/09/09 06:51:02;;;;;;;17.50;13.90;;;;;;;20.22;73.14;100883.44;94615;1193;78447;-70
2021/09/09 06:53:09;;;;;;;18.30;13.20;;;;;;;20.16;72.90;100886.27;94622;1192;80221;-69
2021/09/09 06:55:18;;;;;;;16.50;13.90;;;;;;;20.18;72.85;100887.45;94637;1193;97599;-69
2021/09/09 06:57:26;;;;;;;17.20;13.90;;;;;;;20.28;73.03;100885.30;94630;1192;88136;-68
2021/09/09 06:59:34;;;;;;;17.30;13.40;;;;;;;20.68;72.84;100883.03;94673;1192;94044;-70
2021/09/09 07:01:43;;;;;;;16.80;12.40;;;;;;;20.86;71.91;100882.02;94681;1192;79400;-70
2021/09/09 07:03:51;;;;;;;19.10;13.10;;;;;;;20.87;71.12;100880.23;94655;1191;80217;-68
2021/09/09 07:05:58;;;;;;;23.50;14.60;;;;;;;20.80;70.84;100882.40;94648;1192;97975;-69
2021/09/09 07:08:06;;;;;;;15.00;12.10;;;;;;;20.72;70.48;100880.04;94635;1192;86754;-66
2021/09/09 07:10:15;;;;;;;14.90;11.90;;;;;;;20.64;70.03;100882.00;94637;1192;92885;-66
2021/09/09 07:12:23;;;;;;;15.00;12.10;;;;;;;20.71;70.24;100885.05;94629;1192;79259;-66
2021/09/09 07:14:30;;;;;;;16.40;12.30;;;;;;;20.75;70.09;100880.86;94676;1191;80613;-63
2021/09/09 07:16:38;;;;;;;17.70;12.00;;;;;;;20.77;69.82;100881.71;94696;1192;97166;-62
2021/09/09 07:18:48;;;;;;;15.60;12.70;;;;;;;20.77;69.70;100880.95;94663;1192;87958;-62
2021/09/09 07:20:57;;;;;;;18.90;12.40;;;;;;;20.78;69.64;100881.90;94645;1192;94947;-65
2021/09/09 07:23:07;;;;;;;15.80;12.20;;;;;;;20.82;69.49;100880.58;94650;1192;79445;-66
2021/09/09 07:25:15;;;;;;;19.50;12.70;;;;;;;20.85;69.39;100883.92;94647;1192;81562;-66
2021/09/09 07:27:23;;;;;;;14.50;12.10;;;;;;;20.99;68.89;100881.21;94657;1193;97586;-67
2021/09/09 07:29:30;;;;;;;18.70;13.00;;;;;;;21.09;68.79;100884.18;94684;1192;88279;-64
2021/09/09 07:31:38;;;;;;;16.90;12.80;;;;;;;21.16;68.33;100881.35;94623;1191;93811;-67
2021/09/09 07:33:48;;;;;;;16.20;12.40;;;;;;;21.30;68.40;100878.27;94662;1192;80153;-66
2021/09/09 07:35:59;;;;;;;15.20;11.70;;;;;;;21.54;68.17;100878.95;94648;1191;81395;-66
2021/09/09 07:38:10;;;;;;;14.50;12.00;;;;;;;21.59;67.80;100879.41;94685;1192;96961;-66
2021/09/09 07:40:17;;;;;;;18.80;13.00;;;;;;;21.54;67.57;100876.92;94676;1191;87847;-62
2021/09/09 07:42:25;;;;;;;15.90;12.20;;;;;;;21.51;67.79;100878.56;94660;1183;94173;-61
2021/09/09 07:44:33;;;;;;;13.60;12.00;;;;;;;21.52;67.51;100877.27;94703;1192;79951;-65
2021/09/09 07:46:40;;;;;;;14.90;12.50;;;;;;;21.49;67.38;100880.35;94662;1191;80892;-67
2021/09/09 07:48:50;;;;;;;18.20;12.70;;;;;;;21.52;67.73;100878.86;94677;1192;97733;-65
2021/09/09 07:50:57;;;;;;;14.20;11.40;;;;;;;21.58;67.38;100877.91;94682;1192;87415;-67
2021/09/09 07:53:05;;;;;;;17.00;11.90;;;;;;;21.66;67.12;100874.53;94704;1192;94112;-66
2021/09/09 07:55:14;;;;;;;19.30;12.00;;;;;;;21.75;67.16;100871.77;94686;1192;77552;-63
2021/09/09 07:57:22;;;;;;;12.90;11.00;;;;;;;22.16;67.67;100872.29;94686;1192;81162;-63
2021/09/09 07:59:29;;;;;;;14.10;10.10;;;;;;;22.51;66.84;100871.40;94689;1192;96681;-65
2021/09/09 08:01:37;;;;;;;14.30;10.40;;;;;;;23.11;66.06;100870.99;94672;1192;87171;-65
2021/09/09 08:03:44;;;;;;;14.00;10.30;;;;;;;24.02;65.59;100868.04;94676;1192;94662;-67
2021/09/09 08:05:53;;;;;;;11.70;9.70;;;;;;;24.97;63.55;100872.16;94679;1193;80452;-66
2021/09/09 08:08:01;;;;;;;12.30;10.00;;;;;;;26.01;62.49;100865.59;94696;1192;81736;-63
2021/09/09 08:10:13;;;;;;;13.60;9.80;;;;;;;27.41;60.81;100870.02;94623;1192;97388;-63
2021/09/09 08:12:20;;;;;;;13.60;9.60;;;;;;;28.65;58.92;100876.65;94685;1192;87474;-62
2021/09/09 08:14:28;;;;;;;12.40;9.50;;;;;;;29.78;57.45;100873.11;94676;1192;94122;-63
2021/09/09 08:16:37;;;;;;;10.30;8.90;;;;;;;30.74;55.83;100870.15;94653;1192;78960;-66
2021/09/09 08:18:44;;;;;;;10.10;8.80;;;;;;;31.59;54.39;100871.83;94666;1191;82324;-66
2021/09/09 08:20:54;;;;;;;11.70;8.80;;;;;;;32.18;52.55;100870.27;94656;1192;97925;-62
2021/09/09 08:23:01;;;;;;;9.80;8.80;;;;;;;32.73;50.95;100868.89;94657;1192;87576;-62
2021/09/09 08:25:12;;;;;;;11.90;8.80;;;;;;;33.35;49.72;100871.96;94673;1191;93199;-63
2021/09/09 08:27:19;;;;;;;13.70;8.40;;;;;;;33.83;48.06;100873.89;94681;1192;79223;-63
2021/09/09 08:29:30;;;;;;;15.30;8.90;;;;;;;34.17;46.28;100864.24;94696;1192;80727;-64
2021/09/09 08:31:38;;;;;;;10.80;7.90;;;;;;;34.12;44.64;100868.61;94659;1192;98702;-62
2021/09/09 08:33:45;;;;;;;11.00;8.70;;;;;;;34.22;44.53;100863.04;94680;1192;86339;-62
2021/09/09 08:35:53;;;;;;;9.70;8.20;;;;;;;34.41;43.25;100861.50;94648;1193;94644;-66
2021/09/09 08:38:00;;;;;;;9.30;8.00;;;;;;;34.46;43.17;100863.06;94644;1193;78692;-66
2021/09/09 08:40:10;;;;;;;10.30;8.00;;;;;;;34.71;42.01;100865.41;94671;1192;81045;-64
2021/09/09 08:42:18;;;;;;;9.60;7.40;;;;;;;34.88;40.89;100865.80;94706;1192;97132;-63
2021/09/09 08:44:40;;;;;;;9.00;7.50;;;;;;;35.01;40.02;100865.89;94669;1191;87552;-62
2021/09/09 08:46:48;;;;;;;10.00;7.40;;;;;;;34.93;38.91;100864.13;94650;1191;93822;-63
2021/09/09 08:48:57;;;;;;;9.20;7.80;;;;;;;34.88;38.44;100861.39;94660;1192;78602;-63
2021/09/09 08:51:05;;;;;;;9.50;7.60;;;;;;;35.06;38.14;100862.56;94474;1192;80720;-63
2021/09/09 08:53:14;;;;;;;9.20;7.90;;;;;;;35.29;38.08;100860.52;94665;1192;98322;-63
2021/09/09 08:55:25;;;;;;;8.20;7.40;;;;;;;35.29;37.08;100859.71;94675;1192;87348;-63
2021/09/09 08:57:33;;;;;;;9.40;7.40;;;;;;;34.86;36.46;100855.69;94634;1192;94146;-61
2021/09/09 08:59:40;;;;;;;8.90;7.00;;;;;;;34.77;36.49;100850.42;94644;1192;78951;-65
2021/09/09 09:04:20;;;;;;;8.40;7.50;;;;;;;35.11;36.49;100849.60;92578;1212;599709;-73
2021/09/09 09:06:40;;;;;;;9.50;6.90;;;;;;;35.23;36.21;100852.00;93664;1199;79574;-71
2021/09/09 09:08:55;;;;;;;8.90;6.90;;;;;;;35.30;35.40;100847.80;93717;1198;81104;-71
2021/09/09 09:11:02;;;;;;;10.20;6.90;;;;;;;35.33;35.21;100846.69;93735;1199;95633;-70
2021/09/09 09:13:13;;;;;;;8.70;6.90;;;;;;;35.47;35.27;100842.34;93717;1199;86725;-67
2021/09/09 09:15:24;;;;;;;9.60;7.00;;;;;;;35.20;35.06;100836.91;93737;1197;94472;-69
2021/09/09 09:17:32;;;;;;;10.60;6.30;;;;;;;35.10;34.90;100836.25;93753;1199;79390;-68
2021/09/09 09:19:42;;;;;;;7.50;6.70;;;;;;;34.93;34.20;100835.81;93754;1198;80452;-71
2021/09/09 09:21:54;;;;;;;7.30;6.10;;;;;;;35.02;34.02;100834.10;93763;1199;95616;-71
2021/09/09 09:24:05;;;;;;;8.60;6.40;;;;;;;35.02;34.47;100832.95;93717;1198;87647;-71
2021/09/09 09:26:17;;;;;;;8.30;6.40;;;;;;;35.00;34.68;100828.80;93697;1199;94615;-71
2021/09/09 09:28:45;;;;;;;8.30;6.20;;;;;;;34.99;34.37;100834.19;93710;1198;80218;-71
2021/09/09 09:31:11;;;;;;;6.50;5.70;;;;;;;34.95;33.98;100829.64;93749;1199;81034;-69
2021/09/09 09:33:35;;;;;;;6.80;6.10;;;;;;;34.59;33.10;100827.46;93710;1199;96316;-71
2021/09/09 09:35:42;;;;;;;7.20;6.30;;;;;;;34.45;33.52;100831.44;93676;1199;86319;-71
2021/09/09 09:38:01;;;;;;;7.80;6.30;;;;;;;34.30;33.41;100830.13;93724;1199;93725;-72
2021/09/09 09:40:22;;;;;;;8.80;6.30;;;;;;;33.96;33.00;100828.62;93931;1196;78827;-68
2021/09/09 09:42:30;;;;;;;8.30;6.70;;;;;;;33.34;33.00;100828.52;93852;1196;81847;-69
2021/09/09 09:44:40;;;;;;;9.70;6.90;;;;;;;32.84;33.32;100825.52;93890;1196;96989;-70
2021/09/09 09:46:48;;;;;;;8.60;6.10;;;;;;;32.33;34.12;100826.42;93923;1196;87814;-71
2021/09/09 09:48:55;;;;;;;7.40;6.70;;;;;;;31.76;35.03;100824.12;93939;1196;93783;-71
2021/09/09 09:51:04;;;;;;;7.80;6.00;;;;;;;31.33;35.30;100826.16;93937;1196;77991;-67